Airfield :
LOGIN :

Register | Disclaimer

   EN    FR    IT 

 










Legend :    VFR   Marginal VFR   IFR   Intensive IFR   Very Intensive IFR
Visi :
Ceiling :
>= 8 km
>= 3000ft
5 to 8 km
1000 to 3000 ft
1500m to 5 km
500 to 1000 ft
800 to 1500m
200 to 500 ft
< 800m
< 200 ft
Symbols :   Thunderstorms  Fog  Heavy snow  Heavy precipitations  Wind > 20 kt
SIGMETs :     Misc.  Thunderstorms  Icing  Turbulence  Mountain Waves  Volcanic Ashes






- Airport Elevation : 1202 ft
- IATA code : IGS


ETSI - Ingolstadt

CURRENT METAR :
  • 161220Z 28005KT 9999 FEW030 BKN110 24/16 Q1016 BLU BLU

EXPIRED METARs :
  • 161120Z 27006KT 9999 -RA FEW022 BKN120 23/17 Q1016 BLU BLU
  • 161020Z 27008KT 9999 FEW019 BKN120 22/18 Q1016 BLU BLU TEMPO WHT
  • 160945Z 26009KT 9999 SCT017 BKN130 23/18 Q1016 BLU BLU TEMPO WHT
  • 160920Z 27007KT 9999 BKN015 BKN130 21/18 Q1016 WHT BLU TEMPO GRN
  • 160908Z 28006KT 9999 FEW012 BKN015 BKN120 22/18 Q1016 WHT BLU TEMPO GRN
  • 160840Z 27008KT 9999 BKN012 BKN110 21/18 Q1016 GRN BLU TEMPO GRN
  • 160820Z 26006KT 9999 SCT010 BKN110 20/18 Q1016 BLU BLU TEMPO GRN

TAF TAF ETSI
Valid from the 16 at 11:00 until the 16 at 20:00 UTC


161010Z 1611/1620 28008KT 9999 NSW SCT025 BKN140
PROB30 1613/1616 30012G25KT 4000 TSRA BKN020CB



MET'MAP, your aeronautical weather chart ! - Copyright ORBIFLY December 2007 - Disclaimer

ORBIFLY MET'MAP TEAM :

Programming & Development : Alexandra Zaïnal
Original concept : Baudouin d'Aumeries
Technical & hardware support : Manuel Goepfert
Assistance : Marc-Olivier Méhu




SOURCES & CREDITS :

   NOAA